Time;durP1;ratioP1;P1;durP2;ratioP2;P2;SDS_P1;SDS_P2;PMS_P1;PMS_P2;Temp;Humidity;BMP_temperature;BMP_pressure;BME280_temperature;BME280_humidity;BME280_pressure;Samples;Min_cycle;Max_cycle;Signal;HPM_P1;HPM_P2
2021/10/16 00:00:15;;;;;;;14.90;3.35;;;10.50;72.10;;;;;;5080673;28;20493;-71
2021/10/16 00:02:41;;;;;;;10.27;3.58;;;10.50;72.20;;;;;;5108652;28;20026;-79
2021/10/16 00:05:07;;;;;;;11.07;3.30;;;10.50;72.10;;;;;;5091915;28;20028;-79
2021/10/16 00:07:33;;;;;;;11.65;3.40;;;10.40;72.10;;;;;;5106942;28;20052;-79
2021/10/16 00:09:59;;;;;;;10.35;3.50;;;10.40;72.10;;;;;;5110062;28;20027;-78
2021/10/16 00:12:25;;;;;;;7.40;2.97;;;10.40;72.00;;;;;;5109134;28;20035;-72
2021/10/16 00:14:51;;;;;;;13.50;3.00;;;10.30;71.90;;;;;;5054458;28;20086;-71
2021/10/16 00:17:17;;;;;;;9.13;3.28;;;10.30;72.00;;;;;;5093136;28;20055;-78
2021/10/16 00:19:43;;;;;;;10.23;3.35;;;10.30;71.90;;;;;;5109530;28;20030;-78
2021/10/16 00:22:10;;;;;;;12.75;2.95;;;10.30;72.00;;;;;;5094701;28;20033;-79
2021/10/16 00:24:36;;;;;;;7.20;2.58;;;10.30;72.00;;;;;;5091011;28;20122;-79
2021/10/16 00:27:02;;;;;;;9.50;2.90;;;10.20;71.90;;;;;;5109583;28;20111;-79
2021/10/16 00:29:28;;;;;;;13.45;3.00;;;10.20;71.80;;;;;;5080227;28;20028;-79
2021/10/16 00:31:54;;;;;;;8.48;3.00;;;10.20;71.90;;;;;;5107050;28;20039;-79
2021/10/16 00:34:22;;;;;;;10.85;3.38;;;10.10;71.80;;;;;;5108946;28;20028;-78
2021/10/16 00:36:48;;;;;;;7.88;2.60;;;10.10;71.80;;;;;;5091051;28;20488;-71
2021/10/16 00:39:14;;;;;;;9.40;2.97;;;10.10;71.80;;;;;;5109096;28;20023;-72
2021/10/16 00:41:40;;;;;;;11.00;3.10;;;10.00;71.70;;;;;;5108238;28;20497;-72
2021/10/16 00:44:23;;;;;;;8.57;2.75;;;10.00;71.60;;;;;;5089921;28;20019;-72
2021/10/16 00:46:50;;;;;;;8.35;2.60;;;9.90;71.60;;;;;;5091261;28;20031;-72
2021/10/16 00:49:17;;;;;;;6.70;2.70;;;9.90;71.60;;;;;;5090525;28;20111;-72
2021/10/16 00:51:43;;;;;;;7.45;2.70;;;9.80;71.80;;;;;;5108170;28;20064;-72
2021/10/16 00:54:10;;;;;;;10.07;2.70;;;9.80;72.00;;;;;;5106147;28;20044;-72
2021/10/16 00:56:38;;;;;;;10.25;3.30;;;9.70;72.10;;;;;;5087103;28;20020;-79
2021/10/16 00:59:05;;;;;;;9.07;2.53;;;9.70;72.30;;;;;;5094944;28;20440;-72
2021/10/16 01:01:32;;;;;;;5.43;2.38;;;9.70;72.30;;;;;;5090026;28;20028;-72
2021/10/16 01:03:58;;;;;;;6.00;2.60;;;9.70;72.40;;;;;;5087118;28;20035;-79
2021/10/16 01:06:24;;;;;;;8.70;3.15;;;9.60;72.40;;;;;;5073411;28;20043;-72
2021/10/16 01:08:55;;;;;;;7.15;2.80;;;9.60;72.40;;;;;;5089227;28;20114;-71
2021/10/16 01:11:34;;;;;;;9.80;2.42;;;9.60;72.40;;;;;;5109113;28;20023;-72
2021/10/16 01:14:03;;;;;;;7.50;2.55;;;9.60;72.30;;;;;;5101338;28;20458;-79
2021/10/16 01:16:29;;;;;;;10.13;2.60;;;9.50;72.20;;;;;;5078325;28;20549;-71
2021/10/16 01:18:55;;;;;;;8.70;3.03;;;9.50;72.30;;;;;;5088120;28;20034;-72
2021/10/16 01:21:21;;;;;;;9.88;2.65;;;9.50;72.40;;;;;;5085679;28;20032;-79
2021/10/16 01:23:48;;;;;;;5.68;2.47;;;9.40;72.40;;;;;;5108922;28;20012;-72
2021/10/16 01:26:14;;;;;;;11.95;2.92;;;9.40;72.60;;;;;;5093052;28;20047;-71
2021/10/16 01:28:39;;;;;;;10.65;3.47;;;9.40;72.80;;;;;;5087747;28;20482;-79
2021/10/16 01:31:05;;;;;;;9.05;2.78;;;9.30;72.90;;;;;;5086779;28;20036;-72
2021/10/16 01:33:31;;;;;;;9.75;2.85;;;9.30;73.10;;;;;;5119836;27;20061;-72
2021/10/16 01:36:06;;;;;;;8.88;3.03;;;9.30;73.20;;;;;;5094920;28;20057;-72
2021/10/16 01:38:33;;;;;;;10.13;3.08;;;9.30;73.20;;;;;;5105484;28;20390;-72
2021/10/16 01:41:00;;;;;;;10.82;2.70;;;9.30;73.30;;;;;;5104355;28;20356;-71
2021/10/16 01:43:29;;;;;;;11.73;3.15;;;9.30;73.30;;;;;;5103031;28;20031;-71
2021/10/16 01:45:54;;;;;;;11.63;4.07;;;9.20;73.50;;;;;;5073612;28;20253;-71
2021/10/16 01:48:22;;;;;;;9.85;3.25;;;9.20;73.80;;;;;;5086040;28;20545;-78
2021/10/16 01:50:48;;;;;;;12.50;3.67;;;9.20;74.10;;;;;;5086196;28;20453;-71
2021/10/16 01:53:13;;;;;;;11.20;3.10;;;9.20;74.20;;;;;;5090962;28;20034;-79
2021/10/16 01:55:39;;;;;;;9.90;3.83;;;9.20;74.30;;;;;;5093408;28;20020;-72
2021/10/16 01:58:14;;;;;;;10.05;3.35;;;9.20;74.20;;;;;;5084333;27;20028;-78
2021/10/16 02:00:42;;;;;;;9.05;3.53;;;9.20;74.10;;;;;;5108205;28;20697;-79
2021/10/16 02:03:09;;;;;;;13.30;3.38;;;9.20;74.00;;;;;;5094333;28;20028;-78
2021/10/16 02:05:45;;;;;;;8.55;3.33;;;9.20;73.90;;;;;;5112476;28;20067;-72
2021/10/16 02:08:13;;;;;;;8.98;2.97;;;9.10;73.70;;;;;;5111693;27;20474;-72
2021/10/16 02:10:39;;;;;;;11.88;3.10;;;9.10;73.50;;;;;;5089828;28;20403;-72
2021/10/16 02:13:05;;;;;;;9.00;3.15;;;9.10;73.40;;;;;;5108996;27;20551;-77
2021/10/16 02:15:31;;;;;;;8.82;3.13;;;9.10;73.40;;;;;;5111616;28;20050;-78
2021/10/16 02:17:57;;;;;;;9.70;3.20;;;9.10;73.30;;;;;;5118604;27;20038;-78
2021/10/16 02:20:23;;;;;;;6.93;2.72;;;9.00;73.10;;;;;;5093408;28;20020;-78
2021/10/16 02:22:49;;;;;;;5.88;2.58;;;9.00;73.10;;;;;;5111542;27;20027;-78
2021/10/16 02:25:14;;;;;;;6.15;2.67;;;8.90;73.00;;;;;;5093509;28;20414;-72
2021/10/16 02:27:40;;;;;;;9.35;3.20;;;8.90;73.20;;;;;;5097461;27;20031;-72
2021/10/16 02:30:08;;;;;;;9.82;3.20;;;8.90;73.40;;;;;;5094667;28;20409;-78
2021/10/16 02:32:34;;;;;;;7.40;2.90;;;8.80;73.40;;;;;;5077557;27;20149;-72
2021/10/16 02:34:59;;;;;;;8.38;3.42;;;8.80;73.60;;;;;;5109561;28;20114;-78
2021/10/16 02:37:25;;;;;;;10.70;3.20;;;8.80;73.70;;;;;;5068749;27;20599;-72
2021/10/16 02:39:51;;;;;;;12.82;3.55;;;8.80;74.00;;;;;;5100096;28;20445;-71
2021/10/16 02:42:16;;;;;;;6.72;3.10;;;8.80;74.00;;;;;;5093934;27;20054;-71
2021/10/16 02:44:42;;;;;;;6.50;3.20;;;8.70;73.90;;;;;;5120303;27;20394;-77
2021/10/16 02:47:08;;;;;;;14.82;2.88;;;8.80;73.90;;;;;;5076855;28;20084;-71
2021/10/16 02:49:33;;;;;;;12.95;3.13;;;8.70;73.90;;;;;;5111278;27;20032;-77
2021/10/16 02:51:59;;;;;;;7.00;2.70;;;8.70;73.90;;;;;;5109495;27;20028;-78
2021/10/16 02:54:25;;;;;;;7.75;2.92;;;8.70;74.00;;;;;;5093554;28;20394;-72
2021/10/16 02:56:50;;;;;;;9.02;2.95;;;8.70;74.10;;;;;;5111073;28;20024;-72
2021/10/16 02:59:16;;;;;;;8.68;2.92;;;8.60;74.20;;;;;;5110580;28;20105;-78
2021/10/16 03:01:42;;;;;;;10.00;3.40;;;8.60;74.30;;;;;;5092701;28;20030;-72
2021/10/16 03:04:08;;;;;;;11.50;3.20;;;8.70;74.30;;;;;;5118469;27;20027;-78
2021/10/16 03:06:33;;;;;;;9.60;2.80;;;8.70;74.30;;;;;;5119532;27;20020;-78
2021/10/16 03:08:59;;;;;;;6.72;2.67;;;8.70;74.30;;;;;;5112658;27;20035;-78
2021/10/16 03:11:25;;;;;;;8.25;3.38;;;8.70;74.30;;;;;;5112231;27;20039;-77
2021/10/16 03:13:50;;;;;;;4.75;2.50;;;8.70;74.70;;;;;;5122219;27;20036;-77
2021/10/16 03:16:17;;;;;;;8.15;2.35;;;8.60;74.40;;;;;;5109511;27;20043;-71
2021/10/16 03:18:43;;;;;;;9.43;2.67;;;8.60;74.70;;;;;;5089342;28;20078;-71
2021/10/16 03:21:10;;;;;;;6.35;2.50;;;8.60;74.90;;;;;;5074451;28;20016;-71
2021/10/16 03:23:35;;;;;;;7.85;2.92;;;8.60;75.10;;;;;;5072223;28;20129;-77
2021/10/16 03:26:01;;;;;;;7.28;2.63;;;8.60;75.20;;;;;;5106014;28;20149;-77
2021/10/16 03:28:27;;;;;;;9.23;2.45;;;8.60;75.60;;;;;;5110046;28;20031;-77
2021/10/16 03:30:53;;;;;;;6.28;2.45;;;8.60;75.70;;;;;;5105424;28;20485;-77
2021/10/16 03:33:19;;;;;;;7.45;2.63;;;8.60;75.90;;;;;;5106313;28;20034;-77
2021/10/16 03:35:45;;;;;;;13.20;2.70;;;8.60;76.20;;;;;;5092013;28;20111;-71
2021/10/16 03:38:11;;;;;;;8.85;2.30;;;8.60;76.50;;;;;;5109533;28;20023;-71
2021/10/16 03:40:36;;;;;;;7.78;2.22;;;8.60;76.70;;;;;;5091299;28;20039;-71
2021/10/16 03:43:02;;;;;;;5.63;2.10;;;8.60;76.80;;;;;;5092213;28;20043;-71
2021/10/16 03:45:28;;;;;;;7.00;2.15;;;8.70;77.00;;;;;;5108587;28;20401;-71
2021/10/16 03:47:53;;;;;;;10.20;2.70;;;8.70;77.20;;;;;;5091869;28;20036;-71
2021/10/16 03:50:19;;;;;;;5.57;2.65;;;8.70;77.40;;;;;;5109412;28;20367;-77
2021/10/16 03:52:45;;;;;;;8.70;2.20;;;8.70;77.60;;;;;;5109784;28;20027;-77
2021/10/16 03:55:11;;;;;;;7.57;2.08;;;8.70;78.00;;;;;;5091200;28;20436;-77
2021/10/16 03:57:37;;;;;;;5.93;2.33;;;8.70;78.10;;;;;;5091589;28;20098;-77
2021/10/16 04:00:05;;;;;;;8.43;2.30;;;8.70;78.10;;;;;;5091833;28;20493;-77
2021/10/16 04:02:30;;;;;;;7.88;2.10;;;8.80;78.50;;;;;;5109994;28;20140;-72
2021/10/16 04:04:56;;;;;;;9.82;2.40;;;8.70;78.60;;;;;;5071972;28;20142;-71
2021/10/16 04:07:22;;;;;;;13.48;2.28;;;8.70;78.70;;;;;;5089939;28;20494;-71
2021/10/16 04:09:47;;;;;;;5.97;2.08;;;8.70;78.90;;;;;;5102898;28;20043;-72
2021/10/16 04:12:13;;;;;;;11.65;2.45;;;8.80;79.30;;;;;;5083864;28;20118;-71
2021/10/16 04:14:39;;;;;;;6.60;1.88;;;8.80;79.40;;;;;;5109675;28;20047;-78
2021/10/16 04:17:04;;;;;;;7.90;2.53;;;8.80;79.50;;;;;;5090995;28;20024;-78
2021/10/16 04:19:30;;;;;;;12.35;2.45;;;8.80;79.70;;;;;;5108306;28;20020;-71
2021/10/16 04:21:56;;;;;;;9.45;2.08;;;8.80;79.80;;;;;;5097521;28;20035;-72
2021/10/16 04:24:22;;;;;;;8.70;2.35;;;8.90;79.90;;;;;;5105818;28;20043;-72
2021/10/16 04:26:48;;;;;;;10.10;2.67;;;8.90;80.30;;;;;;5081323;28;20024;-72
2021/10/16 04:29:14;;;;;;;8.38;2.10;;;8.90;80.20;;;;;;5091326;28;20032;-71
2021/10/16 04:31:40;;;;;;;9.93;2.65;;;8.90;80.20;;;;;;5090937;28;20077;-71
2021/10/16 04:34:06;;;;;;;8.70;2.20;;;8.90;80.60;;;;;;5090994;28;20110;-77
2021/10/16 04:36:32;;;;;;;10.25;2.10;;;8.90;80.80;;;;;;5074051;28;20047;-71
2021/10/16 04:38:59;;;;;;;7.18;2.22;;;8.90;80.80;;;;;;5109723;28;20036;-71
2021/10/16 04:41:24;;;;;;;8.30;2.10;;;8.90;80.90;;;;;;5109101;28;20042;-77
2021/10/16 04:43:50;;;;;;;9.10;2.13;;;8.90;81.10;;;;;;5109635;28;20115;-71
2021/10/16 04:46:16;;;;;;;6.53;2.03;;;8.90;81.20;;;;;;5098011;28;20109;-71
2021/10/16 04:48:43;;;;;;;7.53;2.38;;;8.90;81.20;;;;;;5105809;28;20055;-72
2021/10/16 04:51:11;;;;;;;5.28;1.73;;;9.00;81.50;;;;;;5089714;28;20037;-78
2021/10/16 04:53:36;;;;;;;8.18;1.92;;;9.00;81.40;;;;;;5114314;28;20036;-72
2021/10/16 04:56:02;;;;;;;10.20;2.13;;;9.00;81.60;;;;;;5090541;28;20073;-72
2021/10/16 04:58:28;;;;;;;14.98;2.50;;;9.00;81.50;;;;;;5112370;28;20542;-72
2021/10/16 05:00:54;;;;;;;6.97;1.90;;;9.00;81.50;;;;;;5106878;28;20031;-72
2021/10/16 05:03:20;;;;;;;10.90;2.40;;;9.00;81.80;;;;;;5113234;28;20028;-78
2021/10/16 05:05:46;;;;;;;7.93;2.08;;;9.00;82.10;;;;;;5113463;28;20114;-72
2021/10/16 05:08:12;;;;;;;9.25;2.38;;;9.00;82.10;;;;;;5105205;28;20032;-77
2021/10/16 05:10:38;;;;;;;9.18;2.10;;;9.00;82.10;;;;;;5104314;28;20036;-77
2021/10/16 05:13:04;;;;;;;11.63;2.05;;;9.00;82.20;;;;;;5109425;28;20032;-72
2021/10/16 05:15:30;;;;;;;8.23;2.33;;;9.00;82.30;;;;;;5073550;28;20044;-77
2021/10/16 05:17:55;;;;;;;7.63;2.17;;;9.10;82.40;;;;;;5091936;28;20024;-77
2021/10/16 05:20:21;;;;;;;8.85;2.50;;;9.10;82.40;;;;;;5085880;28;20035;-72
2021/10/16 05:22:48;;;;;;;8.70;2.08;;;9.10;82.40;;;;;;5086595;28;20013;-71
2021/10/16 05:25:15;;;;;;;7.82;2.00;;;9.10;82.40;;;;;;5088672;28;20024;-72
2021/10/16 05:27:42;;;;;;;9.52;2.75;;;9.10;82.60;;;;;;5091663;28;20027;-71
2021/10/16 05:30:09;;;;;;;8.88;2.40;;;9.10;82.70;;;;;;5092092;28;20097;-71
2021/10/16 05:32:35;;;;;;;10.00;3.08;;;9.10;82.70;;;;;;5091979;28;20032;-71
2021/10/16 05:35:01;;;;;;;6.78;2.25;;;9.10;82.80;;;;;;5092734;28;20028;-78
2021/10/16 05:37:27;;;;;;;7.70;2.45;;;9.10;82.90;;;;;;5090512;28;20146;-72
2021/10/16 05:39:52;;;;;;;11.50;2.35;;;9.10;82.90;;;;;;5091961;28;20035;-78
2021/10/16 05:42:18;;;;;;;6.95;2.25;;;9.20;83.00;;;;;;5086167;28;20033;-78
2021/10/16 05:44:44;;;;;;;10.85;2.63;;;9.20;83.00;;;;;;5082682;28;20032;-78
2021/10/16 05:47:10;;;;;;;11.02;3.35;;;9.20;83.00;;;;;;5085870;28;20063;-78
2021/10/16 05:49:35;;;;;;;10.82;2.78;;;9.20;83.30;;;;;;5085845;28;20457;-72
2021/10/16 05:52:01;;;;;;;10.48;2.50;;;9.20;83.40;;;;;;5087259;28;20017;-72
2021/10/16 05:54:27;;;;;;;9.10;2.30;;;9.20;83.30;;;;;;5073362;28;20024;-78
2021/10/16 05:56:53;;;;;;;7.05;2.10;;;9.20;83.20;;;;;;5073613;28;20028;-78
2021/10/16 05:59:18;;;;;;;8.40;2.15;;;9.20;83.40;;;;;;5086401;28;20055;-78
2021/10/16 06:01:44;;;;;;;8.18;2.13;;;9.20;83.50;;;;;;5070343;28;20108;-72
2021/10/16 06:04:10;;;;;;;7.25;2.28;;;9.20;83.50;;;;;;5082643;28;20028;-72
2021/10/16 06:06:35;;;;;;;6.85;2.00;;;9.30;83.50;;;;;;5093756;28;20028;-72
2021/10/16 06:09:02;;;;;;;8.38;2.22;;;9.30;83.50;;;;;;5075558;28;20027;-72
2021/10/16 06:11:27;;;;;;;13.02;2.45;;;9.30;83.40;;;;;;5080401;28;20062;-72
2021/10/16 06:13:53;;;;;;;10.18;2.17;;;9.30;83.40;;;;;;5089749;28;20040;-76
2021/10/16 06:16:19;;;;;;;11.07;2.90;;;9.30;83.40;;;;;;5086134;28;20563;-80
2021/10/16 06:18:45;;;;;;;10.55;2.50;;;9.30;83.40;;;;;;5101838;28;20032;-79
2021/10/16 06:21:11;;;;;;;14.15;2.83;;;9.30;83.50;;;;;;5083230;28;20028;-73
2021/10/16 06:23:37;;;;;;;8.27;2.50;;;9.30;83.50;;;;;;5082079;28;20028;-80
2021/10/16 06:26:03;;;;;;;8.23;2.20;;;9.30;83.60;;;;;;5085146;28;20068;-79
2021/10/16 06:28:29;;;;;;;13.32;2.65;;;9.30;83.70;;;;;;5069974;28;20071;-72
2021/10/16 06:30:55;;;;;;;7.75;2.15;;;9.40;83.70;;;;;;5082875;28;20083;-72
2021/10/16 06:33:22;;;;;;;10.85;2.55;;;9.40;83.60;;;;;;5083437;28;20371;-79
2021/10/16 06:35:48;;;;;;;9.65;2.30;;;9.40;83.60;;;;;;5089803;28;20116;-72
2021/10/16 06:38:14;;;;;;;8.85;2.65;;;9.40;83.70;;;;;;5088013;28;20515;-78
2021/10/16 06:40:40;;;;;;;7.57;2.10;;;9.40;83.70;;;;;;5086638;28;20062;-72
2021/10/16 06:43:05;;;;;;;10.25;2.55;;;9.40;83.80;;;;;;5089335;28;20020;-72
2021/10/16 06:45:31;;;;;;;9.98;2.58;;;9.40;83.90;;;;;;5078957;28;20032;-73
2021/10/16 06:47:57;;;;;;;7.32;2.38;;;9.40;83.90;;;;;;5085687;28;20454;-73
2021/10/16 06:50:23;;;;;;;11.10;2.38;;;9.40;84.00;;;;;;5084614;28;20032;-73
2021/10/16 06:52:48;;;;;;;9.48;2.60;;;9.40;84.10;;;;;;5071019;28;20039;-79
2021/10/16 06:55:14;;;;;;;9.23;2.35;;;9.40;84.10;;;;;;5085697;28;20042;-72
2021/10/16 06:57:40;;;;;;;6.60;2.22;;;9.50;84.20;;;;;;5080070;28;20028;-72
2021/10/16 07:00:06;;;;;;;6.72;2.30;;;9.50;84.30;;;;;;5080863;28;20028;-80
2021/10/16 07:02:33;;;;;;;9.05;2.42;;;9.50;84.40;;;;;;5083272;28;20039;-80
2021/10/16 07:04:58;;;;;;;8.73;2.58;;;9.50;84.50;;;;;;5086316;28;20082;-72
2021/10/16 07:07:24;;;;;;;5.35;2.10;;;9.50;84.60;;;;;;5088886;28;20070;-73
2021/10/16 07:09:50;;;;;;;10.07;2.50;;;9.50;85.20;;;;;;5067729;28;20031;-73
2021/10/16 07:12:15;;;;;;;9.13;2.80;;;9.50;84.70;;;;;;5083511;28;20036;-72
2021/10/16 07:14:41;;;;;;;11.13;2.53;;;9.50;84.80;;;;;;5069233;28;20048;-72
2021/10/16 07:17:07;;;;;;;10.10;3.00;;;9.60;84.80;;;;;;5085639;28;20398;-72
2021/10/16 07:19:33;;;;;;;11.27;2.70;;;9.60;84.90;;;;;;5084307;28;20034;-73
2021/10/16 07:21:59;;;;;;;8.73;2.80;;;9.60;84.80;;;;;;5084422;28;20111;-72
2021/10/16 07:24:25;;;;;;;8.68;3.15;;;9.60;84.90;;;;;;5087683;28;20132;-71
2021/10/16 07:26:53;;;;;;;10.15;2.78;;;9.60;84.90;;;;;;5069629;28;20046;-72
2021/10/16 07:29:22;;;;;;;8.82;2.90;;;9.70;85.60;;;;;;5069621;28;20052;-72
2021/10/16 07:31:49;;;;;;;10.48;2.85;;;9.70;85.00;;;;;;5083904;28;20034;-71
2021/10/16 07:34:14;;;;;;;8.40;3.03;;;9.70;85.00;;;;;;5082852;28;20053;-78
2021/10/16 07:36:40;;;;;;;8.52;2.80;;;9.80;85.10;;;;;;5086266;28;20456;-78
2021/10/16 07:39:08;;;;;;;13.23;3.55;;;9.80;85.30;;;;;;5087452;28;20085;-78
2021/10/16 07:41:35;;;;;;;7.88;3.08;;;9.80;85.40;;;;;;5089247;28;20020;-72
2021/10/16 07:44:01;;;;;;;11.73;3.67;;;9.80;85.30;;;;;;5085691;28;20031;-72
2021/10/16 07:46:27;;;;;;;10.52;4.45;;;9.90;85.30;;;;;;5086083;28;20032;-73
2021/10/16 07:48:52;;;;;;;9.95;4.90;;;9.90;85.30;;;;;;5087421;28;20036;-72
2021/10/16 07:51:18;;;;;;;12.10;5.75;;;9.90;85.30;;;;;;5069413;28;20151;-78
2021/10/16 07:53:44;;;;;;;16.48;6.43;;;10.00;85.30;;;;;;5082617;28;20035;-72
2021/10/16 07:56:09;;;;;;;14.60;6.22;;;10.00;85.30;;;;;;5084637;28;20145;-78
2021/10/16 07:58:39;;;;;;;16.88;7.75;;;10.00;85.30;;;;;;5070539;28;20032;-72
2021/10/16 08:01:05;;;;;;;16.50;7.05;;;10.00;85.40;;;;;;5086141;28;20024;-77
2021/10/16 08:03:31;;;;;;;13.35;5.32;;;10.10;85.40;;;;;;5086587;28;20012;-71
2021/10/16 08:05:56;;;;;;;12.05;4.78;;;10.10;85.30;;;;;;5086302;28;20564;-71
2021/10/16 08:08:22;;;;;;;15.75;4.88;;;10.10;85.20;;;;;;5067717;28;20032;-77
2021/10/16 08:10:48;;;;;;;14.40;5.18;;;10.10;85.30;;;;;;5085894;28;20031;-73
2021/10/16 08:13:14;;;;;;;15.38;5.20;;;10.20;85.50;;;;;;5085550;28;20032;-71
2021/10/16 08:15:39;;;;;;;13.50;5.35;;;10.20;85.70;;;;;;5088938;28;20506;-71
2021/10/16 08:18:05;;;;;;;15.85;5.05;;;10.20;85.70;;;;;;5085614;28;20387;-70
2021/10/16 08:20:31;;;;;;;16.80;5.50;;;10.20;85.80;;;;;;5087897;28;20020;-71
2021/10/16 08:22:57;;;;;;;15.65;5.10;;;10.20;85.50;;;;;;5096820;28;20439;-72
2021/10/16 08:25:22;;;;;;;17.95;5.50;;;10.30;85.40;;;;;;5089768;28;20437;-72
2021/10/16 08:27:48;;;;;;;13.60;5.20;;;10.30;85.20;;;;;;5093017;28;20036;-72
2021/10/16 08:30:16;;;;;;;17.75;5.53;;;10.40;85.10;;;;;;5094219;28;20016;-79
2021/10/16 08:32:42;;;;;;;12.35;6.05;;;10.40;85.10;;;;;;5102762;28;20115;-72
2021/10/16 08:35:09;;;;;;;13.80;5.97;;;10.40;85.20;;;;;;5090305;28;20395;-79
2021/10/16 08:37:35;;;;;;;13.45;6.00;;;10.40;85.30;;;;;;5080738;28;20035;-79
2021/10/16 08:40:02;;;;;;;11.32;5.70;;;10.50;85.10;;;;;;5096946;28;20482;-78
2021/10/16 08:42:27;;;;;;;12.48;5.80;;;10.50;85.10;;;;;;5096170;28;20022;-78
2021/10/16 08:44:58;;;;;;;12.10;5.43;;;10.50;85.20;;;;;;5084408;28;20037;-79
2021/10/16 08:47:31;;;;;;;13.95;5.72;;;10.60;85.30;;;;;;5070525;28;20036;-79
2021/10/16 08:50:00;;;;;;;12.65;5.78;;;10.60;85.30;;;;;;5079461;28;20036;-79
2021/10/16 08:52:26;;;;;;;11.02;5.20;;;10.70;85.30;;;;;;5076147;28;20603;-72
2021/10/16 08:54:52;;;;;;;15.68;5.72;;;10.70;85.30;;;;;;5097127;28;20470;-79
2021/10/16 08:57:17;;;;;;;15.55;5.35;;;10.70;85.20;;;;;;5085497;28;20135;-79
2021/10/16 08:59:43;;;;;;;15.65;5.78;;;10.70;84.60;;;;;;5070543;28;20025;-79
2021/10/16 09:02:09;;;;;;;15.80;5.60;;;10.80;84.40;;;;;;5085393;28;20023;-79
2021/10/16 09:04:36;;;;;;;13.77;5.40;;;10.80;84.20;;;;;;5088976;28;20024;-79
2021/10/16 09:07:21;;;;;;;16.73;5.80;;;10.80;84.40;;;;;;5088954;28;20024;-79
2021/10/16 09:09:48;;;;;;;12.85;5.38;;;10.80;84.20;;;;;;5085020;28;20020;-72
2021/10/16 09:12:15;;;;;;;12.85;5.30;;;10.90;83.80;;;;;;5089332;28;20016;-72
2021/10/16 09:14:49;;;;;;;18.27;5.32;;;10.90;83.70;;;;;;5084665;28;20044;-71
2021/10/16 09:17:17;;;;;;;12.60;5.35;;;10.90;83.70;;;;;;5083679;28;20021;-71
2021/10/16 09:19:43;;;;;;;14.05;5.53;;;11.00;83.80;;;;;;5090974;28;20487;-72
2021/10/16 09:22:21;;;;;;;16.50;6.13;;;11.00;83.90;;;;;;5092506;28;20459;-72
2021/10/16 09:24:48;;;;;;;17.00;5.82;;;11.00;83.10;;;;;;5090810;28;20012;-71
2021/10/16 09:27:19;;;;;;;14.48;5.70;;;11.00;83.10;;;;;;5086395;28;20020;-72
2021/10/16 09:30:03;;;;;;;17.25;5.82;;;11.10;83.20;;;;;;5090083;28;20482;-72
2021/10/16 09:32:29;;;;;;;11.40;5.00;;;11.00;83.00;;;;;;5078884;28;20083;-71
2021/10/16 09:35:04;;;;;;;15.52;5.18;;;11.10;82.80;;;;;;5085225;28;20368;-79
2021/10/16 09:37:30;;;;;;;14.38;5.20;;;11.10;83.20;;;;;;5086912;28;20382;-81
2021/10/16 09:39:56;;;;;;;16.67;5.40;;;11.20;82.80;;;;;;5090340;28;20476;-81
2021/10/16 09:42:33;;;;;;;13.35;5.70;;;11.20;82.00;;;;;;5092236;28;20157;-81
2021/10/16 09:45:01;;;;;;;14.32;5.55;;;11.20;81.80;;;;;;5092924;28;20020;-81
2021/10/16 09:47:27;;;;;;;12.38;5.20;;;11.20;82.30;;;;;;5076290;28;20060;-81
2021/10/16 09:50:11;;;;;;;13.65;5.10;;;11.20;82.20;;;;;;5090945;28;20107;-81
2021/10/16 09:52:42;;;;;;;13.68;5.22;;;11.30;82.30;;;;;;5082349;28;20024;-81
2021/10/16 09:55:10;;;;;;;15.20;4.97;;;11.30;82.20;;;;;;5088453;28;20085;-81
2021/10/16 09:57:37;;;;;;;20.73;5.45;;;11.30;81.50;;;;;;5092379;28;20028;-81
2021/10/16 10:00:05;;;;;;;17.17;4.82;;;11.30;82.20;;;;;;5091090;28;20566;-81
2021/10/16 10:02:32;;;;;;;13.55;4.47;;;11.40;82.30;;;;;;5091964;28;20490;-81
2021/10/16 10:05:01;;;;;;;16.17;4.80;;;11.40;81.90;;;;;;5087279;28;20036;-81
2021/10/16 10:07:27;;;;;;;19.75;5.05;;;11.50;81.50;;;;;;5109751;27;20116;-79
2021/10/16 10:09:53;;;;;;;20.67;4.70;;;11.50;81.30;;;;;;5070211;28;20032;-79
2021/10/16 10:12:19;;;;;;;15.77;4.25;;;11.50;81.10;;;;;;5090570;28;20033;-80
2021/10/16 10:14:49;;;;;;;15.98;4.20;;;11.50;79.80;;;;;;5087689;27;20127;-72
2021/10/16 10:17:29;;;;;;;13.23;4.13;;;11.50;80.50;;;;;;5114535;27;20028;-79
2021/10/16 10:20:14;;;;;;;15.95;4.32;;;11.60;80.30;;;;;;5091826;28;20030;-79
2021/10/16 10:22:41;;;;;;;14.32;4.70;;;11.60;80.40;;;;;;5085695;28;20028;-79
2021/10/16 10:25:21;;;;;;;12.05;4.22;;;11.60;79.20;;;;;;5100970;27;20034;-79
2021/10/16 10:27:47;;;;;;;16.10;4.03;;;11.60;79.40;;;;;;5102555;28;20126;-72
2021/10/16 10:30:34;;;;;;;15.10;4.10;;;11.60;79.00;;;;;;5101289;27;20440;-72
2021/10/16 10:33:29;;;;;;;13.65;4.03;;;11.60;78.80;;;;;;5078016;28;20807;-80
2021/10/16 10:35:58;;;;;;;14.77;3.75;;;11.60;79.50;;;;;;5052844;28;20109;-79
2021/10/16 10:38:36;;;;;;;10.82;3.15;;;11.70;79.40;;;;;;5082077;27;20473;-72
2021/10/16 10:41:23;;;;;;;13.07;4.00;;;11.70;79.30;;;;;;5096739;28;20513;-79
2021/10/16 10:43:52;;;;;;;14.50;4.10;;;11.80;79.20;;;;;;5102444;27;20024;-71
2021/10/16 10:46:25;;;;;;;12.75;3.70;;;11.80;79.20;;;;;;5107601;28;20388;-79
2021/10/16 10:48:51;;;;;;;14.02;3.88;;;11.90;79.40;;;;;;5102435;27;20012;-79
2021/10/16 10:51:28;;;;;;;10.60;3.30;;;11.90;77.80;;;;;;5073333;28;20028;-72
2021/10/16 10:54:17;;;;;;;16.50;4.10;;;12.00;78.80;;;;;;5102957;28;20032;-81
2021/10/16 10:56:46;;;;;;;14.07;3.58;;;12.00;78.40;;;;;;5087056;28;20031;-81
2021/10/16 10:59:15;;;;;;;11.52;3.60;;;12.00;78.20;;;;;;5085706;28;20024;-72
2021/10/16 11:02:04;;;;;;;17.23;4.22;;;12.10;77.90;;;;;;5097115;28;20020;-81
2021/10/16 11:04:48;;;;;;;9.88;3.40;;;12.20;77.90;;;;;;5106298;28;20462;-72
2021/10/16 11:07:17;;;;;;;11.98;3.20;;;12.30;76.90;;;;;;5105412;28;20020;-72
2021/10/16 11:09:43;;;;;;;12.63;4.00;;;12.30;77.20;;;;;;5090187;28;20084;-80
2021/10/16 11:12:10;;;;;;;15.57;3.50;;;12.40;76.70;;;;;;5089836;28;20024;-72
2021/10/16 11:14:38;;;;;;;10.45;3.20;;;12.40;76.70;;;;;;5084827;28;20122;-72
2021/10/16 11:17:10;;;;;;;11.70;3.45;;;12.50;76.20;;;;;;5109632;27;20016;-72
2021/10/16 11:19:46;;;;;;;15.27;3.78;;;12.50;76.00;;;;;;5087257;28;20103;-72
2021/10/16 11:22:11;;;;;;;15.30;3.78;;;12.60;76.00;;;;;;5104542;27;20061;-72
2021/10/16 11:24:37;;;;;;;18.05;4.60;;;12.70;75.30;;;;;;5106391;27;20425;-79
2021/10/16 11:27:03;;;;;;;15.40;3.72;;;12.70;74.60;;;;;;5092342;27;20103;-80
2021/10/16 11:29:28;;;;;;;12.95;3.53;;;12.70;74.30;;;;;;5117756;27;20503;-79
2021/10/16 11:32:13;;;;;;;9.77;2.95;;;12.80;74.60;;;;;;5107317;27;20035;-71
2021/10/16 11:34:38;;;;;;;17.58;3.50;;;12.90;74.50;;;;;;5096089;28;20062;-72
2021/10/16 11:37:04;;;;;;;12.65;3.42;;;13.00;73.90;;;;;;5107579;27;20196;-71
2021/10/16 11:39:30;;;;;;;14.05;3.75;;;13.10;73.30;;;;;;5110781;27;20026;-79
2021/10/16 11:41:56;;;;;;;10.82;2.97;;;13.20;72.80;;;;;;5096334;27;20035;-79
2021/10/16 11:44:22;;;;;;;13.05;3.25;;;13.30;72.80;;;;;;5094437;28;20549;-82
2021/10/16 11:47:01;;;;;;;10.20;2.70;;;13.40;72.40;;;;;;5091177;28;20031;-72
2021/10/16 11:49:30;;;;;;;10.80;3.50;;;13.70;72.50;;;;;;5116566;27;20042;-82
2021/10/16 11:51:56;;;;;;;9.35;3.33;;;13.90;72.30;;;;;;5094139;28;20043;-72
2021/10/16 11:54:23;;;;;;;13.85;4.05;;;14.10;70.80;;;;;;5087612;28;20047;-82
2021/10/16 11:56:58;;;;;;;11.60;3.42;;;14.20;67.90;;;;;;5112526;27;20019;-72
2021/10/16 11:59:24;;;;;;;15.07;3.65;;;14.30;67.90;;;;;;5111031;27;20038;-73
2021/10/16 12:01:50;;;;;;;10.13;3.25;;;14.50;67.00;;;;;;5107425;27;20363;-72
2021/10/16 12:04:16;;;;;;;9.57;2.92;;;14.60;66.50;;;;;;5059142;27;20103;-72
2021/10/16 12:06:42;;;;;;;12.50;3.60;;;14.60;67.00;;;;;;5108072;27;20035;-72
2021/10/16 12:09:12;;;;;;;13.88;3.28;;;14.70;67.70;;;;;;5115504;27;20181;-73
2021/10/16 12:11:39;;;;;;;13.57;3.28;;;14.90;67.80;;;;;;5105990;27;20035;-72
2021/10/16 12:14:07;;;;;;;13.40;2.95;;;15.00;65.70;;;;;;5077469;28;20032;-81
2021/10/16 12:16:37;;;;;;;9.25;2.80;;;15.00;66.00;;;;;;5107508;27;20094;-72
2021/10/16 12:19:10;;;;;;;13.48;4.03;;;15.00;63.60;;;;;;5091198;28;20537;-73
2021/10/16 12:21:44;;;;;;;12.70;3.72;;;14.90;62.00;;;;;;5084399;28;20054;-73
2021/10/16 12:24:22;;;;;;;12.30;3.10;;;14.70;62.30;;;;;;5105259;28;20031;-72
2021/10/16 12:27:02;;;;;;;8.50;2.55;;;14.60;64.30;;;;;;5102503;28;20350;-71
2021/10/16 12:29:30;;;;;;;14.43;4.40;;;14.50;64.60;;;;;;5105386;28;20047;-72
2021/10/16 12:31:56;;;;;;;14.25;4.22;;;14.50;65.10;;;;;;5109400;28;20295;-80
2021/10/16 12:34:24;;;;;;;13.57;3.28;;;14.40;65.10;;;;;;5083801;28;20544;-71
2021/10/16 12:36:58;;;;;;;13.02;3.10;;;14.40;64.40;;;;;;5100401;28;20107;-72
2021/10/16 12:39:43;;;;;;;12.68;3.10;;;14.30;64.00;;;;;;5101164;28;20943;-79
2021/10/16 12:42:16;;;;;;;12.20;3.47;;;14.30;64.30;;;;;;5107068;28;20027;-79
2021/10/16 12:44:45;;;;;;;10.55;3.50;;;14.20;64.30;;;;;;5078883;28;20111;-72
2021/10/16 12:47:16;;;;;;;10.85;2.88;;;14.20;65.00;;;;;;5114084;27;20062;-80